Latest Weather Observations for North Head

IDN60801

Issued at 6:02 pm EDT Friday 12 February 2016 (issued every 30 minutes, with the page automatically refreshed every 10 minutes)

About weather observations | Map of weather stations | Latest weather observations for NSW | Other Formats
Station Details ID: 066197 Name: NORTH HEAD Lat: -33.82 Lon: 151.30 Height: 90.0 m
Data from the previous 72 hours. | See also: Recent months for locations in New South Wales
Date/Time
EDT
Temp
°C
App
Temp
°C
Dew
Point
Rel
Hum
%
Delta-T
°C
Wind Press
QNH
hPa
Press
MSL
hPa
Rain
since 9 am
mm
Dir
 
Spd
km/h
Gust
km/h
Spd
kts
Gust
kts
12/06:00pm - - - - - ENE 15 22 8 12 - - -
12/05:30pm - - - - - ENE 13 24 7 13 - - -
12/05:00pm - - - - - ENE 13 20 7 11 - - -
12/04:30pm - - - - - ENE 13 20 7 11 - - -
12/04:00pm - - - - - ENE 17 22 9 12 - - -
12/03:30pm - - - - - ENE 15 20 8 11 - - -
12/03:00pm - - - - - ENE 13 19 7 10 - - -
12/02:30pm - - - - - ENE 15 20 8 11 - - -
12/02:00pm - - - - - ENE 17 24 9 13 - - -
12/01:30pm - - - - - ENE 15 20 8 11 - - -
12/01:00pm - - - - - ENE 11 17 6 9 - - -
12/12:30pm - - - - - ENE 15 20 8 11 - - -
12/12:00pm - - - - - E 13 17 7 9 - - -
12/11:30am - - - - - ENE 11 19 6 10 - - -
12/11:00am - - - - - NE 11 17 6 9 - - -
12/10:30am - - - - - NNE 7 13 4 7 - - -
12/10:00am - - - - - N 6 9 3 5 - - -
12/09:30am - - - - - NNE 4 7 2 4 - - -
12/09:00am - - - - - NNW 6 11 3 6 - - -
12/08:30am - - - - - NW 4 7 2 4 - - -
12/08:00am - - - - - NW 6 7 3 4 - - -
12/07:30am - - - - - WNW 4 6 2 3 - - -
12/07:00am - - - - - WNW 4 6 2 3 - - -
12/06:30am - - - - - NW 6 6 3 3 - - -
12/06:00am - - - - - NW 4 6 2 3 - - -
12/05:30am - - - - - WNW 4 6 2 3 - - -
12/05:00am - - - - - NNW 6 6 3 3 - - -
12/04:30am - - - - - NW 4 6 2 3 - - -
12/04:00am - - - - - NNW 6 7 3 4 - - -
12/03:30am - - - - - NNE 6 11 3 6 - - -
12/03:00am - - - - - NNE 6 9 3 5 - - -
12/02:30am - - - - - NE 7 11 4 6 - - -
12/02:00am - - - - - NE 9 13 5 7 - - -
12/01:30am - - - - - NE 7 11 4 6 - - -
12/01:00am - - - - - NE 9 15 5 8 - - -
12/12:30am - - - - - ENE 11 17 6 9 - - -
12/12:00am - - - - - ENE 7 13 4 7 - - -
 
Date/Time
EDT
Temp
°C
App
Temp
°C
Dew
Point
Rel
Hum
%
Delta-T
°C
Wind Press
QNH
hPa
Press
MSL
hPa
Rain
since 9 am
mm
Dir
 
Spd
km/h
Gust
km/h
Spd
kts
Gust
kts
11/11:30pm - - - - - ENE 9 19 5 10 - - -
11/11:00pm - - - - - ENE 11 17 6 9 - - -
11/10:30pm - - - - - ENE 9 17 5 9 - - -
11/10:00pm - - - - - ENE 9 17 5 9 - - -
11/09:30pm - - - - - ENE 13 20 7 11 - - -
11/09:00pm - - - - - ENE 15 28 8 15 - - -
11/08:30pm - - - - - ENE 15 22 8 12 - - -
11/08:00pm - - - - - ENE 13 20 7 11 - - -
11/07:30pm - - - - - ENE 15 26 8 14 - - -
11/07:00pm - - - - - ENE 11 19 6 10 - - -
11/06:30pm - - - - - E 11 19 6 10 - - -
11/06:00pm - - - - - E 11 17 6 9 - - -
11/05:30pm - - - - - E 11 17 6 9 - - -
11/05:00pm - - - - - E 15 22 8 12 - - -
11/04:30pm - - - - - E 17 24 9 13 - - -
11/04:00pm - - - - - E 13 22 7 12 - - -
11/03:30pm - - - - - E 13 22 7 12 - - -
11/03:00pm - - - - - E 15 20 8 11 - - -
11/02:30pm - - - - - E 13 19 7 10 - - -
11/02:00pm - - - - - E 11 17 6 9 - - -
11/01:30pm - - - - - E 11 15 6 8 - - -
11/01:00pm - - - - - ENE 9 15 5 8 - - -
11/12:30pm - - - - - ENE 7 13 4 7 - - -
11/12:00pm - - - - - ENE 9 15 5 8 - - -
11/11:30am - - - - - E 9 15 5 8 - - -
11/11:00am - - - - - E 7 11 4 6 - - -
11/10:30am - - - - - E 7 11 4 6 - - -
11/10:00am - - - - - E 7 11 4 6 - - -
11/09:30am - - - - - NE 6 11 3 6 - - -
11/09:00am - - - - - NNE 7 11 4 6 - - -
11/08:30am - - - - - NNW 4 7 2 4 - - -
11/08:00am - - - - - NNW 4 7 2 4 - - -
11/07:30am - - - - - NNW 6 7 3 4 - - -
11/07:00am - - - - - N 6 9 3 5 - - -
11/06:30am - - - - - NNW 6 7 3 4 - - -
11/06:00am - - - - - N 7 9 4 5 - - -
11/05:30am - - - - - N 7 11 4 6 - - -
11/05:00am - - - - - N 9 13 5 7 - - -
11/04:30am - - - - - NNE 11 19 6 10 - - -
11/04:00am - - - - - NNE 13 22 7 12 - - -
11/03:30am - - - - - NNE 15 22 8 12 - - -
11/03:00am - - - - - NNE 15 24 8 13 - - -
11/02:30am - - - - - NNE 17 28 9 15 - - -
11/02:00am - - - - - NNE 17 22 9 12 - - -
11/01:30am - - - - - NNE 17 26 9 14 - - -
11/01:00am - - - - - NNE 19 26 10 14 - - -
11/12:30am - - - - - NNE 17 24 9 13 - - -
11/12:00am - - - - - NNE 19 28 10 15 - - -
 
Date/Time
EDT
Temp
°C
App
Temp
°C
Dew
Point
Rel
Hum
%
Delta-T
°C
Wind Press
QNH
hPa
Press
MSL
hPa
Rain
since 9 am
mm
Dir
 
Spd
km/h
Gust
km/h
Spd
kts
Gust
kts
10/11:30pm - - - - - NE 20 32 11 17 - - -
10/11:00pm - - - - - NE 19 30 10 16 - - -
10/10:30pm - - - - - NNE 19 32 10 17 - - -
10/10:00pm - - - - - NNE 19 30 10 16 - - -
10/09:30pm - - - - - NNE 20 30 11 16 - - -
10/09:00pm - - - - - NNE 19 28 10 15 - - -
10/08:30pm - - - - - NNE 19 30 10 16 - - -
10/08:00pm - - - - - NNE 19 30 10 16 - - -
10/07:30pm - - - - - NNE 20 32 11 17 - - -
10/07:00pm - - - - - NNE 20 33 11 18 - - -
10/06:30pm - - - - - NE 22 33 12 18 - - -
10/06:00pm - - - - - NE 22 33 12 18 - - -
10/05:30pm - - - - - NE 22 33 12 18 - - -
10/05:00pm - - - - - NE 22 33 12 18 - - -
10/04:30pm - - - - - NE 20 32 11 17 - - -
10/04:00pm - - - - - NE 19 30 10 16 - - -
10/03:30pm - - - - - NE 19 30 10 16 - - -
10/03:00pm - - - - - NE 19 33 10 18 - - -
10/02:30pm - - - - - NE 20 28 11 15 - - -
10/02:00pm - - - - - NE 19 28 10 15 - - -
10/01:30pm - - - - - NE 17 26 9 14 - - -
10/01:00pm - - - - - ENE 13 20 7 11 - - -
10/12:00pm - - - - - NNE 13 - 7 - - - -
10/11:30am - - - - - NE 11 17 6 9 - - -
10/11:00am - - - - - NNE 13 17 7 9 - - -
10/10:30am - - - - - NNE 13 19 7 10 - - -
10/10:00am - - - - - N 9 17 5 9 - - -
10/09:30am - - - - - N 9 17 5 9 - - -
10/09:00am - - - - - NW 9 13 5 7 - - -
10/08:30am - - - - - WNW 7 11 4 6 - - -
10/08:00am - - - - - WNW 7 9 4 5 - - -
10/07:30am - - - - - WNW 6 7 3 4 - - -
10/07:00am - - - - - WNW 7 9 4 5 - - -
10/06:30am - - - - - WNW 7 7 4 4 - - -
10/06:00am - - - - - WNW 7 7 4 4 - - -
10/05:30am - - - - - WNW 6 6 3 3 - - -
10/05:00am - - - - - WNW 7 7 4 4 - - -
10/04:30am - - - - - WNW 7 7 4 4 - - -
10/04:00am - - - - - W 6 7 3 4 - - -
10/03:30am - - - - - W 6 6 3 3 - - -
10/03:00am - - - - - W 6 6 3 3 - - -
10/02:30am - - - - - WNW 2 7 1 4 - - -
10/02:00am - - - - - CALM 0 0 0 0 - - -
10/01:30am - - - - - CALM 0 0 0 0 - - -
10/01:00am - - - - - CALM 0 0 0 0 - - -
10/12:30am - - - - - NNE 4 4 2 2 - - -
10/12:00am - - - - - NE 4 6 2 3 - - -
 
Date/Time
EDT
Temp
°C
App
Temp
°C
Dew
Point
Rel
Hum
%
Delta-T
°C
Wind Press
QNH
hPa
Press
MSL
hPa
Rain
since 9 am
mm
Dir
 
Spd
km/h
Gust
km/h
Spd
kts
Gust
kts
09/11:30pm - - - - - E 4 7 2 4 - - -
09/11:00pm - - - - - E 4 7 2 4 - - -
09/10:30pm - - - - - E 6 9 3 5 - - -
09/10:00pm - - - - - E 7 13 4 7 - - -
09/09:30pm - - - - - E 9 13 5 7 - - -
09/09:00pm - - - - - ESE 9 13 5 7 - - -
09/08:30pm - - - - - ESE 9 13 5 7 - - -
09/08:00pm - - - - - ESE 9 17 5 9 - - -
09/07:30pm - - - - - SE 13 19 7 10 - - -
09/07:00pm - - - - - ESE 11 19 6 10 - - -
09/06:30pm - - - - - SE 11 20 6 11 - - -

Other Formats:

Comma delimited format used in spreadsheet applications
http://www.bom.gov.au/fwo/IDN60801/IDN60801.95768.axf

JavaScript Object Notation format (JSON) in row-major order
http://www.bom.gov.au/fwo/IDN60801/IDN60801.95768.json